Aviation Digital Data Service (ADDS)

Output produced by METARs form (1322 UTC 21 August 2019)
found at http://www.aviationweather.gov/metar/data/
 
METAR text: UWKD 211300Z 32004MPS 290V360 9999 SCT049 26/13 Q1021 R29/CLRD70 NOSIG RMK QFE755/1006
Conditions at: UWKD (KAZAN , RU) observed 1300 UTC 21 August 2019
Temperature: 26.0°C (79°F)
Dewpoint: 13.0°C (55°F) [RH = 45%]
Pressure (altimeter): 30.15 inches Hg (1021.0 mb)
Winds: from the NW (320 degrees) at 9 MPH (8 knots; 4.1 m/s)
Visibility: 6 or more miles (10+ km)
Ceiling: at least 12,000 feet AGL
Clouds: scattered clouds at 4900 feet AGL
Weather: no significant weather observed at this time

METAR text: UWKD 211230Z 35004MPS 9999 BKN049 26/13 Q1021 R29/70D NOSIG RMK QFE755/1006
Conditions at: UWKD (KAZAN , RU) observed 1230 UTC 21 August 2019
Temperature: 26.0°C (79°F)
Dewpoint: 13.0°C (55°F) [RH = 45%]
Pressure (altimeter): 30.15 inches Hg (1021.0 mb)
Winds: from the N (350 degrees) at 9 MPH (8 knots; 4.1 m/s)
Visibility: 6 or more miles (10+ km)
Ceiling: 4900 feet AGL
Clouds: broken clouds at 4900 feet AGL
Weather: no significant weather observed at this time

METAR text: UWKD 211200Z 01004MPS 9999 BKN046 25/14 Q1021 R29/CLRD70 NOSIG RMK QFE755/1007
Conditions at: UWKD (KAZAN , RU) observed 1200 UTC 21 August 2019
Temperature: 25.0°C (77°F)
Dewpoint: 14.0°C (57°F) [RH = 50%]
Pressure (altimeter): 30.15 inches Hg (1021.0 mb)
Winds: from the N (10 degrees) at 9 MPH (8 knots; 4.1 m/s)
Visibility: 6 or more miles (10+ km)
Ceiling: 4600 feet AGL
Clouds: broken clouds at 4600 feet AGL
Weather: no significant weather observed at this time

METAR text: UWKD 211130Z 01004MPS 340V050 CAVOK 26/13 Q1022 R29/CLRD70 NOSIG RMK QFE755/1007
Conditions at: UWKD (KAZAN , RU) observed 1130 UTC 21 August 2019
Temperature: 26.0°C (79°F)
Dewpoint: 13.0°C (55°F) [RH = 45%]
Pressure (altimeter): 30.18 inches Hg (1022.0 mb)
Winds: from the N (10 degrees) at 9 MPH (8 knots; 4.1 m/s)
Visibility: 6 or more miles (10+ km)
Ceiling: ceiling and visibility are OK
Clouds: unknown
Weather: no significant weather observed at this time

METAR text: UWKD 211100Z 35004MPS 300V020 9999 SCT044 24/13 Q1022 R29/CLRD70 NOSIG RMK QFE755/1007
Conditions at: UWKD (KAZAN , RU) observed 1100 UTC 21 August 2019
Temperature: 24.0°C (75°F)
Dewpoint: 13.0°C (55°F) [RH = 50%]
Pressure (altimeter): 30.18 inches Hg (1022.0 mb)
Winds: from the N (350 degrees) at 9 MPH (8 knots; 4.1 m/s)
Visibility: 6 or more miles (10+ km)
Ceiling: at least 12,000 feet AGL
Clouds: scattered clouds at 4400 feet AGL
Weather: no significant weather observed at this time

METAR text: UWKD 211030Z 36004MPS 340V060 9999 SCT040 25/14 Q1022 R29/70D NOSIG RMK QFE755/1007
Conditions at: UWKD (KAZAN , RU) observed 1030 UTC 21 August 2019
Temperature: 25.0°C (77°F)
Dewpoint: 14.0°C (57°F) [RH = 50%]
Pressure (altimeter): 30.18 inches Hg (1022.0 mb)
Winds: from the N (360 degrees) at 9 MPH (8 knots; 4.1 m/s)
Visibility: 6 or more miles (10+ km)
Ceiling: at least 12,000 feet AGL
Clouds: scattered clouds at 4000 feet AGL
Weather: no significant weather observed at this time

METAR text: UWKD 211000Z 01005MPS 310V040 9999 SCT040 25/14 Q1022 R29/CLRD70 NOSIG RMK QFE755/1007
Conditions at: UWKD (KAZAN , RU) observed 1000 UTC 21 August 2019
Temperature: 25.0°C (77°F)
Dewpoint: 14.0°C (57°F) [RH = 50%]
Pressure (altimeter): 30.18 inches Hg (1022.0 mb)
Winds: from the N (10 degrees) at 12 MPH (10 knots; 5.1 m/s)
Visibility: 6 or more miles (10+ km)
Ceiling: at least 12,000 feet AGL
Clouds: scattered clouds at 4000 feet AGL
Weather: no significant weather observed at this time

METAR text: UWKD 210930Z 33004MPS 300V020 9999 SCT039 25/13 Q1022 R29/CLRD70 NOSIG RMK QFE755/1007
Conditions at: UWKD (KAZAN , RU) observed 0930 UTC 21 August 2019
Temperature: 25.0°C (77°F)
Dewpoint: 13.0°C (55°F) [RH = 47%]
Pressure (altimeter): 30.18 inches Hg (1022.0 mb)
Winds: from the NNW (330 degrees) at 9 MPH (8 knots; 4.1 m/s)
Visibility: 6 or more miles (10+ km)
Ceiling: at least 12,000 feet AGL
Clouds: scattered clouds at 3900 feet AGL
Weather: no significant weather observed at this time

METAR text: UWKD 210900Z 35003MPS 320V020 9999 SCT034 25/14 Q1022 R29/70D NOSIG RMK QFE755/1007
Conditions at: UWKD (KAZAN , RU) observed 0900 UTC 21 August 2019
Temperature: 25.0°C (77°F)
Dewpoint: 14.0°C (57°F) [RH = 50%]
Pressure (altimeter): 30.18 inches Hg (1022.0 mb)
Winds: from the N (350 degrees) at 7 MPH (6 knots; 3.1 m/s)
Visibility: 6 or more miles (10+ km)
Ceiling: at least 12,000 feet AGL
Clouds: scattered clouds at 3400 feet AGL
Weather: no significant weather observed at this time

METAR text: UWKD 210830Z 34004MPS 290V010 9999 SCT040 24/15 Q1022 R29/70D NOSIG RMK QFE755/1007
Conditions at: UWKD (KAZAN , RU) observed 0830 UTC 21 August 2019
Temperature: 24.0°C (75°F)
Dewpoint: 15.0°C (59°F) [RH = 57%]
Pressure (altimeter): 30.18 inches Hg (1022.0 mb)
Winds: from the NNW (340 degrees) at 9 MPH (8 knots; 4.1 m/s)
Visibility: 6 or more miles (10+ km)
Ceiling: at least 12,000 feet AGL
Clouds: scattered clouds at 4000 feet AGL
Weather: no significant weather observed at this time

METAR text: UWKD 210800Z 35003MPS 320V030 9999 SCT030 23/15 Q1022 R29/CLRD70 NOSIG RMK QFE755/1007
Conditions at: UWKD (KAZAN , RU) observed 0800 UTC 21 August 2019
Temperature: 23.0°C (73°F)
Dewpoint: 15.0°C (59°F) [RH = 61%]
Pressure (altimeter): 30.18 inches Hg (1022.0 mb)
Winds: from the N (350 degrees) at 7 MPH (6 knots; 3.1 m/s)
Visibility: 6 or more miles (10+ km)
Ceiling: at least 12,000 feet AGL
Clouds: scattered clouds at 3000 feet AGL
Weather: no significant weather observed at this time

METAR text: UWKD 210730Z 32004MPS 300V360 9999 SCT028 23/15 Q1022 R29/CLRD70 NOSIG RMK QFE755/1007
Conditions at: UWKD (KAZAN , RU) observed 0730 UTC 21 August 2019
Temperature: 23.0°C (73°F)
Dewpoint: 15.0°C (59°F) [RH = 61%]
Pressure (altimeter): 30.18 inches Hg (1022.0 mb)
Winds: from the NW (320 degrees) at 9 MPH (8 knots; 4.1 m/s)
Visibility: 6 or more miles (10+ km)
Ceiling: at least 12,000 feet AGL
Clouds: scattered clouds at 2800 feet AGL
Weather: no significant weather observed at this time

METAR text: UWKD 210700Z 32004MPS 290V360 9999 BKN028 23/15 Q1022 R29/70D NOSIG RMK QFE755/1007
Conditions at: UWKD (KAZAN , RU) observed 0700 UTC 21 August 2019
Temperature: 23.0°C (73°F)
Dewpoint: 15.0°C (59°F) [RH = 61%]
Pressure (altimeter): 30.18 inches Hg (1022.0 mb)
Winds: from the NW (320 degrees) at 9 MPH (8 knots; 4.1 m/s)
Visibility: 6 or more miles (10+ km)
Ceiling: 2800 feet AGL
Clouds: broken clouds at 2800 feet AGL
Weather: no significant weather observed at this time

METAR text: UWKD 210630Z 35004MPS 320V020 9999 SCT023 23/15 Q1022 R29/70D NOSIG RMK QFE755/1007
Conditions at: UWKD (KAZAN , RU) observed 0630 UTC 21 August 2019
Temperature: 23.0°C (73°F)
Dewpoint: 15.0°C (59°F) [RH = 61%]
Pressure (altimeter): 30.18 inches Hg (1022.0 mb)
Winds: from the N (350 degrees) at 9 MPH (8 knots; 4.1 m/s)
Visibility: 6 or more miles (10+ km)
Ceiling: at least 12,000 feet AGL
Clouds: scattered clouds at 2300 feet AGL
Weather: no significant weather observed at this time

METAR text: UWKD 210600Z 34004MPS 9999 SCT023 22/16 Q1022 R29/70D NOSIG RMK QFE755/1007
Conditions at: UWKD (KAZAN , RU) observed 0600 UTC 21 August 2019
Temperature: 22.0°C (72°F)
Dewpoint: 16.0°C (61°F) [RH = 69%]
Pressure (altimeter): 30.18 inches Hg (1022.0 mb)
Winds: from the NNW (340 degrees) at 9 MPH (8 knots; 4.1 m/s)
Visibility: 6 or more miles (10+ km)
Ceiling: at least 12,000 feet AGL
Clouds: scattered clouds at 2300 feet AGL
Weather: no significant weather observed at this time

METAR text: UWKD 210530Z 33003MPS 310V010 CAVOK 21/16 Q1022 R29/CLRD70 NOSIG RMK QFE755/1007
Conditions at: UWKD (KAZAN , RU) observed 0530 UTC 21 August 2019
Temperature: 21.0°C (70°F)
Dewpoint: 16.0°C (61°F) [RH = 73%]
Pressure (altimeter): 30.18 inches Hg (1022.0 mb)
Winds: from the NNW (330 degrees) at 7 MPH (6 knots; 3.1 m/s)
Visibility: 6 or more miles (10+ km)
Ceiling: ceiling and visibility are OK
Clouds: unknown
Weather: no significant weather observed at this time

METAR text: UWKD 210500Z 33004MPS CAVOK 21/16 Q1022 R29/70D NOSIG RMK QFE755/1007
Conditions at: UWKD (KAZAN , RU) observed 0500 UTC 21 August 2019
Temperature: 21.0°C (70°F)
Dewpoint: 16.0°C (61°F) [RH = 73%]
Pressure (altimeter): 30.18 inches Hg (1022.0 mb)
Winds: from the NNW (330 degrees) at 9 MPH (8 knots; 4.1 m/s)
Visibility: 6 or more miles (10+ km)
Ceiling: ceiling and visibility are OK
Clouds: unknown
Weather: no significant weather observed at this time

METAR text: UWKD 210430Z 34004MPS CAVOK 19/16 Q1022 R29/CLRD70 NOSIG RMK QFE755/1007
Conditions at: UWKD (KAZAN , RU) observed 0430 UTC 21 August 2019
Temperature: 19.0°C (66°F)
Dewpoint: 16.0°C (61°F) [RH = 83%]
Pressure (altimeter): 30.18 inches Hg (1022.0 mb)
Winds: from the NNW (340 degrees) at 9 MPH (8 knots; 4.1 m/s)
Visibility: 6 or more miles (10+ km)
Ceiling: ceiling and visibility are OK
Clouds: unknown
Weather: no significant weather observed at this time

METAR text: UWKD 210400Z 33004MPS CAVOK 18/16 Q1022 R29/70D NOSIG RMK QFE755/1007
Conditions at: UWKD (KAZAN , RU) observed 0400 UTC 21 August 2019
Temperature: 18.0°C (64°F)
Dewpoint: 16.0°C (61°F) [RH = 88%]
Pressure (altimeter): 30.18 inches Hg (1022.0 mb)
Winds: from the NNW (330 degrees) at 9 MPH (8 knots; 4.1 m/s)
Visibility: 6 or more miles (10+ km)
Ceiling: ceiling and visibility are OK
Clouds: unknown
Weather: no significant weather observed at this time

METAR text: UWKD 210330Z 33004MPS 9000 NSC 17/16 Q1022 R29/70D NOSIG RMK QFE755/1007
Conditions at: UWKD (KAZAN , RU) observed 0330 UTC 21 August 2019
Temperature: 17.0°C (63°F)
Dewpoint: 16.0°C (61°F) [RH = 94%]
Pressure (altimeter): 30.18 inches Hg (1022.0 mb)
Winds: from the NNW (330 degrees) at 9 MPH (8 knots; 4.1 m/s)
Visibility: 6 miles ( 9 km)
Ceiling: at least 12,000 feet AGL
Clouds: sky clear below 12,000 feet AGL
Weather: no significant weather observed at this time

METAR text: UWKD 210300Z 33004MPS 5000 BR NSC 16/15 Q1022 R29/CLRD70 NOSIG RMK QFE755/1007
Conditions at: UWKD (KAZAN , RU) observed 0300 UTC 21 August 2019
Temperature: 16.0°C (61°F)
Dewpoint: 15.0°C (59°F) [RH = 94%]
Pressure (altimeter): 30.18 inches Hg (1022.0 mb)
Winds: from the NNW (330 degrees) at 9 MPH (8 knots; 4.1 m/s)
Visibility: 3 miles ( 5 km)
Ceiling: at least 12,000 feet AGL
Clouds: sky clear below 12,000 feet AGL
Weather: BR  (mist)

METAR text: UWKD 210230Z 34004MPS 3900 BR NSC 15/14 Q1022 R29/70D NOSIG RMK QFE755/1007
Conditions at: UWKD (KAZAN , RU) observed 0230 UTC 21 August 2019
Temperature: 15.0°C (59°F)
Dewpoint: 14.0°C (57°F) [RH = 94%]
Pressure (altimeter): 30.18 inches Hg (1022.0 mb)
Winds: from the NNW (340 degrees) at 9 MPH (8 knots; 4.1 m/s)
Visibility: 2.42 miles (3.89 km)
Ceiling: at least 12,000 feet AGL
Clouds: sky clear below 12,000 feet AGL
Weather: BR  (mist)

METAR text: UWKD 210200Z 34003MPS 3700 BR NSC 15/14 Q1021 R29/70D NOSIG RMK QFE755/1007
Conditions at: UWKD (KAZAN , RU) observed 0200 UTC 21 August 2019
Temperature: 15.0°C (59°F)
Dewpoint: 14.0°C (57°F) [RH = 94%]
Pressure (altimeter): 30.15 inches Hg (1021.0 mb)
Winds: from the NNW (340 degrees) at 7 MPH (6 knots; 3.1 m/s)
Visibility: 2.30 miles (3.70 km)
Ceiling: at least 12,000 feet AGL
Clouds: sky clear below 12,000 feet AGL
Weather: BR  (mist)

METAR text: UWKD 210130Z 35003MPS 4600 BR NSC 15/14 Q1021 R29/CLRD70 TEMPO 0500 FG RMK QFE755/1006
Conditions at: UWKD (KAZAN , RU) observed 0130 UTC 21 August 2019
Temperature: 15.0°C (59°F)
Dewpoint: 14.0°C (57°F) [RH = 94%]
Pressure (altimeter): 30.15 inches Hg (1021.0 mb)
Winds: from the N (350 degrees) at 7 MPH (6 knots; 3.1 m/s)
Visibility: 2.86 miles (4.60 km)
Ceiling: at least 12,000 feet AGL
Clouds: sky clear below 12,000 feet AGL
Weather: BR  (mist)

METAR text: UWKD 210100Z 35004MPS 4900 BR NSC 15/14 Q1021 R29/CLRD70 TEMPO 0500 FG RMK QFE755/1006
Conditions at: UWKD (KAZAN , RU) observed 0100 UTC 21 August 2019
Temperature: 15.0°C (59°F)
Dewpoint: 14.0°C (57°F) [RH = 94%]
Pressure (altimeter): 30.15 inches Hg (1021.0 mb)
Winds: from the N (350 degrees) at 9 MPH (8 knots; 4.1 m/s)
Visibility: 3 miles ( 5 km)
Ceiling: at least 12,000 feet AGL
Clouds: sky clear below 12,000 feet AGL
Weather: BR  (mist)

METAR text: UWKD 210030Z 35003MPS 6000 NSC 15/14 Q1021 R29/70D TEMPO 0500 FG RMK QFE755/1006
Conditions at: UWKD (KAZAN , RU) observed 0030 UTC 21 August 2019
Temperature: 15.0°C (59°F)
Dewpoint: 14.0°C (57°F) [RH = 94%]
Pressure (altimeter): 30.15 inches Hg (1021.0 mb)
Winds: from the N (350 degrees) at 7 MPH (6 knots; 3.1 m/s)
Visibility: 4 miles ( 6 km)
Ceiling: at least 12,000 feet AGL
Clouds: sky clear below 12,000 feet AGL
Weather: no significant weather observed at this time

METAR text: UWKD 210000Z 34003MPS 6000 NSC 15/14 Q1021 R29/CLRD70 TEMPO 0500 FG RMK QFE755/1006
Conditions at: UWKD (KAZAN , RU) observed 0000 UTC 21 August 2019
Temperature: 15.0°C (59°F)
Dewpoint: 14.0°C (57°F) [RH = 94%]
Pressure (altimeter): 30.15 inches Hg (1021.0 mb)
Winds: from the NNW (340 degrees) at 7 MPH (6 knots; 3.1 m/s)
Visibility: 4 miles ( 6 km)
Ceiling: at least 12,000 feet AGL
Clouds: sky clear below 12,000 feet AGL
Weather: no significant weather observed at this time

METAR text: UWKD 202330Z 35003MPS 8000 NSC 15/14 Q1021 R29/70D TEMPO 3100 BR RMK QFE755/1006
Conditions at: UWKD (KAZAN , RU) observed 2330 UTC 20 August 2019
Temperature: 15.0°C (59°F)
Dewpoint: 14.0°C (57°F) [RH = 94%]
Pressure (altimeter): 30.15 inches Hg (1021.0 mb)
Winds: from the N (350 degrees) at 7 MPH (6 knots; 3.1 m/s)
Visibility: 5 miles ( 8 km)
Ceiling: at least 12,000 feet AGL
Clouds: sky clear below 12,000 feet AGL
Weather: no significant weather observed at this time

METAR text: UWKD 202300Z 35003MPS 9000 NSC 15/14 Q1021 R29/CLRD70 TEMPO 3100 BR RMK QFE755/1006
Conditions at: UWKD (KAZAN , RU) observed 2300 UTC 20 August 2019
Temperature: 15.0°C (59°F)
Dewpoint: 14.0°C (57°F) [RH = 94%]
Pressure (altimeter): 30.15 inches Hg (1021.0 mb)
Winds: from the N (350 degrees) at 7 MPH (6 knots; 3.1 m/s)
Visibility: 6 miles ( 9 km)
Ceiling: at least 12,000 feet AGL
Clouds: sky clear below 12,000 feet AGL
Weather: no significant weather observed at this time

METAR text: UWKD 202230Z 35003MPS CAVOK 16/14 Q1021 R29/70D TEMPO 3100 BR RMK QFE755/1006
Conditions at: UWKD (KAZAN , RU) observed 2230 UTC 20 August 2019
Temperature: 16.0°C (61°F)
Dewpoint: 14.0°C (57°F) [RH = 88%]
Pressure (altimeter): 30.15 inches Hg (1021.0 mb)
Winds: from the N (350 degrees) at 7 MPH (6 knots; 3.1 m/s)
Visibility: 6 or more miles (10+ km)
Ceiling: ceiling and visibility are OK
Clouds: unknown
Weather: no significant weather observed at this time

METAR text: UWKD 202200Z 34003MPS CAVOK 15/14 Q1021 R29/CLRD70 TEMPO 3100 BR RMK QFE755/1006
Conditions at: UWKD (KAZAN , RU) observed 2200 UTC 20 August 2019
Temperature: 15.0°C (59°F)
Dewpoint: 14.0°C (57°F) [RH = 94%]
Pressure (altimeter): 30.15 inches Hg (1021.0 mb)
Winds: from the NNW (340 degrees) at 7 MPH (6 knots; 3.1 m/s)
Visibility: 6 or more miles (10+ km)
Ceiling: ceiling and visibility are OK
Clouds: unknown
Weather: no significant weather observed at this time

METAR text: UWKD 202130Z 35003MPS CAVOK 16/14 Q1021 R29/70D TEMPO 3100 BR RMK QFE755/1006
Conditions at: UWKD (KAZAN , RU) observed 2130 UTC 20 August 2019
Temperature: 16.0°C (61°F)
Dewpoint: 14.0°C (57°F) [RH = 88%]
Pressure (altimeter): 30.15 inches Hg (1021.0 mb)
Winds: from the N (350 degrees) at 7 MPH (6 knots; 3.1 m/s)
Visibility: 6 or more miles (10+ km)
Ceiling: ceiling and visibility are OK
Clouds: unknown
Weather: no significant weather observed at this time

METAR text: UWKD 202100Z 34003MPS CAVOK 16/14 Q1021 R29/CLRD70 TEMPO 3100 BR RMK QFE755/1006
Conditions at: UWKD (KAZAN , RU) observed 2100 UTC 20 August 2019
Temperature: 16.0°C (61°F)
Dewpoint: 14.0°C (57°F) [RH = 88%]
Pressure (altimeter): 30.15 inches Hg (1021.0 mb)
Winds: from the NNW (340 degrees) at 7 MPH (6 knots; 3.1 m/s)
Visibility: 6 or more miles (10+ km)
Ceiling: ceiling and visibility are OK
Clouds: unknown
Weather: no significant weather observed at this time

METAR text: UWKD 202030Z 33003MPS CAVOK 15/14 Q1021 R29/CLRD70 TEMPO 3100 BR RMK QFE755/1006
Conditions at: UWKD (KAZAN , RU) observed 2030 UTC 20 August 2019
Temperature: 15.0°C (59°F)
Dewpoint: 14.0°C (57°F) [RH = 94%]
Pressure (altimeter): 30.15 inches Hg (1021.0 mb)
Winds: from the NNW (330 degrees) at 7 MPH (6 knots; 3.1 m/s)
Visibility: 6 or more miles (10+ km)
Ceiling: ceiling and visibility are OK
Clouds: unknown
Weather: no significant weather observed at this time

METAR text: UWKD 202000Z 32002MPS CAVOK 16/14 Q1021 R29/CLRD70 TEMPO 3100 BR RMK QFE755/1006
Conditions at: UWKD (KAZAN , RU) observed 2000 UTC 20 August 2019
Temperature: 16.0°C (61°F)
Dewpoint: 14.0°C (57°F) [RH = 88%]
Pressure (altimeter): 30.15 inches Hg (1021.0 mb)
Winds: from the NW (320 degrees) at 5 MPH (4 knots; 2.1 m/s)
Visibility: 6 or more miles (10+ km)
Ceiling: ceiling and visibility are OK
Clouds: unknown
Weather: no significant weather observed at this time

METAR text: UWKD 201930Z 31002MPS 260V350 CAVOK 17/15 Q1021 R29/70D NOSIG RMK QFE754/1006
Conditions at: UWKD (KAZAN , RU) observed 1930 UTC 20 August 2019
Temperature: 17.0°C (63°F)
Dewpoint: 15.0°C (59°F) [RH = 88%]
Pressure (altimeter): 30.15 inches Hg (1021.0 mb)
Winds: from the NW (310 degrees) at 5 MPH (4 knots; 2.1 m/s)
Visibility: 6 or more miles (10+ km)
Ceiling: ceiling and visibility are OK
Clouds: unknown
Weather: no significant weather observed at this time

METAR text: UWKD 201900Z 36003MPS CAVOK 17/14 Q1021 R29/CLRD70 NOSIG RMK QFE754/1006
Conditions at: UWKD (KAZAN , RU) observed 1900 UTC 20 August 2019
Temperature: 17.0°C (63°F)
Dewpoint: 14.0°C (57°F) [RH = 82%]
Pressure (altimeter): 30.15 inches Hg (1021.0 mb)
Winds: from the N (360 degrees) at 7 MPH (6 knots; 3.1 m/s)
Visibility: 6 or more miles (10+ km)
Ceiling: ceiling and visibility are OK
Clouds: unknown
Weather: no significant weather observed at this time

METAR text: UWKD 201830Z 36003MPS CAVOK 17/14 Q1021 R29/70D NOSIG RMK QFE754/1006
Conditions at: UWKD (KAZAN , RU) observed 1830 UTC 20 August 2019
Temperature: 17.0°C (63°F)
Dewpoint: 14.0°C (57°F) [RH = 82%]
Pressure (altimeter): 30.15 inches Hg (1021.0 mb)
Winds: from the N (360 degrees) at 7 MPH (6 knots; 3.1 m/s)
Visibility: 6 or more miles (10+ km)
Ceiling: ceiling and visibility are OK
Clouds: unknown
Weather: no significant weather observed at this time

METAR text: UWKD 201800Z 02003MPS CAVOK 18/14 Q1021 R29/CLRD70 NOSIG RMK QFE754/1006
Conditions at: UWKD (KAZAN , RU) observed 1800 UTC 20 August 2019
Temperature: 18.0°C (64°F)
Dewpoint: 14.0°C (57°F) [RH = 77%]
Pressure (altimeter): 30.15 inches Hg (1021.0 mb)
Winds: from the NNE (20 degrees) at 7 MPH (6 knots; 3.1 m/s)
Visibility: 6 or more miles (10+ km)
Ceiling: ceiling and visibility are OK
Clouds: unknown
Weather: no significant weather observed at this time

METAR text: UWKD 201730Z 01004MPS CAVOK 18/15 Q1021 R29/70D NOSIG RMK QFE754/1006
Conditions at: UWKD (KAZAN , RU) observed 1730 UTC 20 August 2019
Temperature: 18.0°C (64°F)
Dewpoint: 15.0°C (59°F) [RH = 83%]
Pressure (altimeter): 30.15 inches Hg (1021.0 mb)
Winds: from the N (10 degrees) at 9 MPH (8 knots; 4.1 m/s)
Visibility: 6 or more miles (10+ km)
Ceiling: ceiling and visibility are OK
Clouds: unknown
Weather: no significant weather observed at this time

METAR text: UWKD 201700Z 01004MPS CAVOK 19/15 Q1020 R29/CLRD70 NOSIG RMK QFE754/1006
Conditions at: UWKD (KAZAN , RU) observed 1700 UTC 20 August 2019
Temperature: 19.0°C (66°F)
Dewpoint: 15.0°C (59°F) [RH = 78%]
Pressure (altimeter): 30.12 inches Hg (1020.0 mb)
Winds: from the N (10 degrees) at 9 MPH (8 knots; 4.1 m/s)
Visibility: 6 or more miles (10+ km)
Ceiling: ceiling and visibility are OK
Clouds: unknown
Weather: no significant weather observed at this time

METAR text: UWKD 201630Z 02005MPS CAVOK 20/15 Q1020 R29/70D NOSIG RMK QFE754/1005
Conditions at: UWKD (KAZAN , RU) observed 1630 UTC 20 August 2019
Temperature: 20.0°C (68°F)
Dewpoint: 15.0°C (59°F) [RH = 73%]
Pressure (altimeter): 30.12 inches Hg (1020.0 mb)
Winds: from the NNE (20 degrees) at 12 MPH (10 knots; 5.1 m/s)
Visibility: 6 or more miles (10+ km)
Ceiling: ceiling and visibility are OK
Clouds: unknown
Weather: no significant weather observed at this time

METAR text: UWKD 201600Z 01005MPS CAVOK 21/15 Q1020 R29/CLRD70 NOSIG RMK QFE754/1005
Conditions at: UWKD (KAZAN , RU) observed 1600 UTC 20 August 2019
Temperature: 21.0°C (70°F)
Dewpoint: 15.0°C (59°F) [RH = 69%]
Pressure (altimeter): 30.12 inches Hg (1020.0 mb)
Winds: from the N (10 degrees) at 12 MPH (10 knots; 5.1 m/s)
Visibility: 6 or more miles (10+ km)
Ceiling: ceiling and visibility are OK
Clouds: unknown
Weather: no significant weather observed at this time

METAR text: UWKD 201530Z 36004MPS CAVOK 23/15 Q1020 R29/CLRD70 NOSIG RMK QFE754/1005
Conditions at: UWKD (KAZAN , RU) observed 1530 UTC 20 August 2019
Temperature: 23.0°C (73°F)
Dewpoint: 15.0°C (59°F) [RH = 61%]
Pressure (altimeter): 30.12 inches Hg (1020.0 mb)
Winds: from the N (360 degrees) at 9 MPH (8 knots; 4.1 m/s)
Visibility: 6 or more miles (10+ km)
Ceiling: ceiling and visibility are OK
Clouds: unknown
Weather: no significant weather observed at this time

METAR text: UWKD 201500Z 35004MPS CAVOK 24/14 Q1020 R29/70D NOSIG RMK QFE754/1005
Conditions at: UWKD (KAZAN , RU) observed 1500 UTC 20 August 2019
Temperature: 24.0°C (75°F)
Dewpoint: 14.0°C (57°F) [RH = 54%]
Pressure (altimeter): 30.12 inches Hg (1020.0 mb)
Winds: from the N (350 degrees) at 9 MPH (8 knots; 4.1 m/s)
Visibility: 6 or more miles (10+ km)
Ceiling: ceiling and visibility are OK
Clouds: unknown
Weather: no significant weather observed at this time

METAR text: UWKD 201430Z 36004MPS 9999 FEW046 25/13 Q1020 R29/70D NOSIG RMK QFE753/1005
Conditions at: UWKD (KAZAN , RU) observed 1430 UTC 20 August 2019
Temperature: 25.0°C (77°F)
Dewpoint: 13.0°C (55°F) [RH = 47%]
Pressure (altimeter): 30.12 inches Hg (1020.0 mb)
Winds: from the N (360 degrees) at 9 MPH (8 knots; 4.1 m/s)
Visibility: 6 or more miles (10+ km)
Ceiling: at least 12,000 feet AGL
Clouds: few clouds at 4600 feet AGL
Weather: no significant weather observed at this time

METAR text: UWKD 201400Z 33005MPS 9999 FEW046 25/13 Q1019 R29/CLRD70 NOSIG RMK QFE753/1005
Conditions at: UWKD (KAZAN , RU) observed 1400 UTC 20 August 2019
Temperature: 25.0°C (77°F)
Dewpoint: 13.0°C (55°F) [RH = 47%]
Pressure (altimeter): 30.09 inches Hg (1019.0 mb)
Winds: from the NNW (330 degrees) at 12 MPH (10 knots; 5.1 m/s)
Visibility: 6 or more miles (10+ km)
Ceiling: at least 12,000 feet AGL
Clouds: few clouds at 4600 feet AGL
Weather: no significant weather observed at this time

METAR text: UWKD 201330Z 31006MPS 9999 FEW046 25/14 Q1019 R29/70D NOSIG RMK QFE753/1005
Conditions at: UWKD (KAZAN , RU) observed 1330 UTC 20 August 2019
Temperature: 25.0°C (77°F)
Dewpoint: 14.0°C (57°F) [RH = 50%]
Pressure (altimeter): 30.09 inches Hg (1019.0 mb)
Winds: from the NW (310 degrees) at 14 MPH (12 knots; 6.2 m/s)
Visibility: 6 or more miles (10+ km)
Ceiling: at least 12,000 feet AGL
Clouds: few clouds at 4600 feet AGL
Weather: no significant weather observed at this time

METAR text: UWKD 201300Z 31006MPS 290V350 CAVOK 25/14 Q1019 R29/CLRD70 NOSIG RMK QFE753/1004
Conditions at: UWKD (KAZAN , RU) observed 1300 UTC 20 August 2019
Temperature: 25.0°C (77°F)
Dewpoint: 14.0°C (57°F) [RH = 50%]
Pressure (altimeter): 30.09 inches Hg (1019.0 mb)
Winds: from the NW (310 degrees) at 14 MPH (12 knots; 6.2 m/s)
Visibility: 6 or more miles (10+ km)
Ceiling: ceiling and visibility are OK
Clouds: unknown
Weather: no significant weather observed at this time

METAR text: UWKD 201230Z 31006MPS CAVOK 25/14 Q1019 R29/CLRD70 NOSIG RMK QFE753/1005
Conditions at: UWKD (KAZAN , RU) observed 1230 UTC 20 August 2019
Temperature: 25.0°C (77°F)
Dewpoint: 14.0°C (57°F) [RH = 50%]
Pressure (altimeter): 30.09 inches Hg (1019.0 mb)
Winds: from the NW (310 degrees) at 14 MPH (12 knots; 6.2 m/s)
Visibility: 6 or more miles (10+ km)
Ceiling: ceiling and visibility are OK
Clouds: unknown
Weather: no significant weather observed at this time

METAR text: UWKD 201200Z 32006MPS CAVOK 26/14 Q1019 R29/70D NOSIG RMK QFE753/1005
Conditions at: UWKD (KAZAN , RU) observed 1200 UTC 20 August 2019
Temperature: 26.0°C (79°F)
Dewpoint: 14.0°C (57°F) [RH = 48%]
Pressure (altimeter): 30.09 inches Hg (1019.0 mb)
Winds: from the NW (320 degrees) at 14 MPH (12 knots; 6.2 m/s)
Visibility: 6 or more miles (10+ km)
Ceiling: ceiling and visibility are OK
Clouds: unknown
Weather: no significant weather observed at this time

METAR text: UWKD 201130Z 31007MPS CAVOK 25/14 Q1019 R29/70D NOSIG RMK QFE753/1005
Conditions at: UWKD (KAZAN , RU) observed 1130 UTC 20 August 2019
Temperature: 25.0°C (77°F)
Dewpoint: 14.0°C (57°F) [RH = 50%]
Pressure (altimeter): 30.09 inches Hg (1019.0 mb)
Winds: from the NW (310 degrees) at 16 MPH (14 knots; 7.2 m/s)
Visibility: 6 or more miles (10+ km)
Ceiling: ceiling and visibility are OK
Clouds: unknown
Weather: no significant weather observed at this time

METAR text: UWKD 201100Z 31006MPS 9999 SCT040 25/14 Q1019 R29/CLRD70 NOSIG RMK QFE753/1005
Conditions at: UWKD (KAZAN , RU) observed 1100 UTC 20 August 2019
Temperature: 25.0°C (77°F)
Dewpoint: 14.0°C (57°F) [RH = 50%]
Pressure (altimeter): 30.09 inches Hg (1019.0 mb)
Winds: from the NW (310 degrees) at 14 MPH (12 knots; 6.2 m/s)
Visibility: 6 or more miles (10+ km)
Ceiling: at least 12,000 feet AGL
Clouds: scattered clouds at 4000 feet AGL
Weather: no significant weather observed at this time

METAR text: UWKD 201030Z 32006MPS 290V350 9999 SCT034 25/14 Q1019 R29/CLRD70 NOSIG RMK QFE753/1005
Conditions at: UWKD (KAZAN , RU) observed 1030 UTC 20 August 2019
Temperature: 25.0°C (77°F)
Dewpoint: 14.0°C (57°F) [RH = 50%]
Pressure (altimeter): 30.09 inches Hg (1019.0 mb)
Winds: from the NW (320 degrees) at 14 MPH (12 knots; 6.2 m/s)
Visibility: 6 or more miles (10+ km)
Ceiling: at least 12,000 feet AGL
Clouds: scattered clouds at 3400 feet AGL
Weather: no significant weather observed at this time

METAR text: UWKD 201000Z 31005MPS 9999 BKN034 25/15 Q1019 R29/CLRD70 NOSIG RMK QFE753/1005
Conditions at: UWKD (KAZAN , RU) observed 1000 UTC 20 August 2019
Temperature: 25.0°C (77°F)
Dewpoint: 15.0°C (59°F) [RH = 54%]
Pressure (altimeter): 30.09 inches Hg (1019.0 mb)
Winds: from the NW (310 degrees) at 12 MPH (10 knots; 5.1 m/s)
Visibility: 6 or more miles (10+ km)
Ceiling: 3400 feet AGL
Clouds: broken clouds at 3400 feet AGL
Weather: no significant weather observed at this time

METAR text: UWKD 200930Z 32006MPS 9999 BKN034 23/14 Q1019 R29/CLRD70 NOSIG RMK QFE753/1005
Conditions at: UWKD (KAZAN , RU) observed 0930 UTC 20 August 2019
Temperature: 23.0°C (73°F)
Dewpoint: 14.0°C (57°F) [RH = 57%]
Pressure (altimeter): 30.09 inches Hg (1019.0 mb)
Winds: from the NW (320 degrees) at 14 MPH (12 knots; 6.2 m/s)
Visibility: 6 or more miles (10+ km)
Ceiling: 3400 feet AGL
Clouds: broken clouds at 3400 feet AGL
Weather: no significant weather observed at this time

METAR text: UWKD 200900Z 31005MPS 9999 BKN034 23/15 Q1019 R29/70D NOSIG RMK QFE753/1004
Conditions at: UWKD (KAZAN , RU) observed 0900 UTC 20 August 2019
Temperature: 23.0°C (73°F)
Dewpoint: 15.0°C (59°F) [RH = 61%]
Pressure (altimeter): 30.09 inches Hg (1019.0 mb)
Winds: from the NW (310 degrees) at 12 MPH (10 knots; 5.1 m/s)
Visibility: 6 or more miles (10+ km)
Ceiling: 3400 feet AGL
Clouds: broken clouds at 3400 feet AGL
Weather: no significant weather observed at this time

METAR text: UWKD 200830Z 31004G09MPS 9999 BKN035 23/15 Q1019 R29/CLRD70 NOSIG RMK QFE753/1004
Conditions at: UWKD (KAZAN , RU) observed 0830 UTC 20 August 2019
Temperature: 23.0°C (73°F)
Dewpoint: 15.0°C (59°F) [RH = 61%]
Pressure (altimeter): 30.09 inches Hg (1019.0 mb)
Winds: from the NW (310 degrees) at 9 MPH (8 knots; 4.1 m/s)
gusting to 20 MPH (17 knots; 8.7 m/s)
Visibility: 6 or more miles (10+ km)
Ceiling: 3500 feet AGL
Clouds: broken clouds at 3500 feet AGL
Weather: no significant weather observed at this time

METAR text: UWKD 200800Z 32005MPS 9999 SCT029 24/16 Q1019 R29/70D NOSIG RMK QFE753/1004
Conditions at: UWKD (KAZAN , RU) observed 0800 UTC 20 August 2019
Temperature: 24.0°C (75°F)
Dewpoint: 16.0°C (61°F) [RH = 61%]
Pressure (altimeter): 30.09 inches Hg (1019.0 mb)
Winds: from the NW (320 degrees) at 12 MPH (10 knots; 5.1 m/s)
Visibility: 6 or more miles (10+ km)
Ceiling: at least 12,000 feet AGL
Clouds: scattered clouds at 2900 feet AGL
Weather: no significant weather observed at this time

METAR text: UWKD 200730Z 31006MPS 9999 FEW029 23/15 Q1019 R29/CLRD70 NOSIG RMK QFE753/1004
Conditions at: UWKD (KAZAN , RU) observed 0730 UTC 20 August 2019
Temperature: 23.0°C (73°F)
Dewpoint: 15.0°C (59°F) [RH = 61%]
Pressure (altimeter): 30.09 inches Hg (1019.0 mb)
Winds: from the NW (310 degrees) at 14 MPH (12 knots; 6.2 m/s)
Visibility: 6 or more miles (10+ km)
Ceiling: at least 12,000 feet AGL
Clouds: few clouds at 2900 feet AGL
Weather: no significant weather observed at this time

METAR text: UWKD 200700Z 31006MPS CAVOK 23/15 Q1019 R29/70D NOSIG RMK QFE753/1005
Conditions at: UWKD (KAZAN , RU) observed 0700 UTC 20 August 2019
Temperature: 23.0°C (73°F)
Dewpoint: 15.0°C (59°F) [RH = 61%]
Pressure (altimeter): 30.09 inches Hg (1019.0 mb)
Winds: from the NW (310 degrees) at 14 MPH (12 knots; 6.2 m/s)
Visibility: 6 or more miles (10+ km)
Ceiling: ceiling and visibility are OK
Clouds: unknown
Weather: no significant weather observed at this time

METAR text: UWKD 200630Z 30004G09MPS CAVOK 22/14 Q1019 R29/70D NOSIG RMK QFE753/1005
Conditions at: UWKD (KAZAN , RU) observed 0630 UTC 20 August 2019
Temperature: 22.0°C (72°F)
Dewpoint: 14.0°C (57°F) [RH = 60%]
Pressure (altimeter): 30.09 inches Hg (1019.0 mb)
Winds: from the WNW (300 degrees) at 9 MPH (8 knots; 4.1 m/s)
gusting to 20 MPH (17 knots; 8.7 m/s)
Visibility: 6 or more miles (10+ km)
Ceiling: ceiling and visibility are OK
Clouds: unknown
Weather: no significant weather observed at this time

METAR text: UWKD 200600Z 33006MPS CAVOK 22/15 Q1019 R29/70D NOSIG RMK QFE753/1005
Conditions at: UWKD (KAZAN , RU) observed 0600 UTC 20 August 2019
Temperature: 22.0°C (72°F)
Dewpoint: 15.0°C (59°F) [RH = 65%]
Pressure (altimeter): 30.09 inches Hg (1019.0 mb)
Winds: from the NNW (330 degrees) at 14 MPH (12 knots; 6.2 m/s)
Visibility: 6 or more miles (10+ km)
Ceiling: ceiling and visibility are OK
Clouds: unknown
Weather: no significant weather observed at this time

METAR text: UWKD 200530Z 32006MPS CAVOK 22/15 Q1019 R29/70D NOSIG RMK QFE753/1004
Conditions at: UWKD (KAZAN , RU) observed 0530 UTC 20 August 2019
Temperature: 22.0°C (72°F)
Dewpoint: 15.0°C (59°F) [RH = 65%]
Pressure (altimeter): 30.09 inches Hg (1019.0 mb)
Winds: from the NW (320 degrees) at 14 MPH (12 knots; 6.2 m/s)
Visibility: 6 or more miles (10+ km)
Ceiling: ceiling and visibility are OK
Clouds: unknown
Weather: no significant weather observed at this time

METAR text: UWKD 200500Z 32006MPS CAVOK 21/15 Q1019 R29/70D NOSIG RMK QFE753/1004
Conditions at: UWKD (KAZAN , RU) observed 0500 UTC 20 August 2019
Temperature: 21.0°C (70°F)
Dewpoint: 15.0°C (59°F) [RH = 69%]
Pressure (altimeter): 30.09 inches Hg (1019.0 mb)
Winds: from the NW (320 degrees) at 14 MPH (12 knots; 6.2 m/s)
Visibility: 6 or more miles (10+ km)
Ceiling: ceiling and visibility are OK
Clouds: unknown
Weather: no significant weather observed at this time

METAR text: UWKD 200430Z 32006MPS CAVOK 21/15 Q1019 R29/CLRD70 NOSIG RMK QFE753/1004
Conditions at: UWKD (KAZAN , RU) observed 0430 UTC 20 August 2019
Temperature: 21.0°C (70°F)
Dewpoint: 15.0°C (59°F) [RH = 69%]
Pressure (altimeter): 30.09 inches Hg (1019.0 mb)
Winds: from the NW (320 degrees) at 14 MPH (12 knots; 6.2 m/s)
Visibility: 6 or more miles (10+ km)
Ceiling: ceiling and visibility are OK
Clouds: unknown
Weather: no significant weather observed at this time

METAR text: UWKD 200400Z 32004MPS CAVOK 19/16 Q1019 R29/70D TEMPO 2000 BR RMK QFE753/1004
Conditions at: UWKD (KAZAN , RU) observed 0400 UTC 20 August 2019
Temperature: 19.0°C (66°F)
Dewpoint: 16.0°C (61°F) [RH = 83%]
Pressure (altimeter): 30.09 inches Hg (1019.0 mb)
Winds: from the NW (320 degrees) at 9 MPH (8 knots; 4.1 m/s)
Visibility: 6 or more miles (10+ km)
Ceiling: ceiling and visibility are OK
Clouds: unknown
Weather: no significant weather observed at this time

METAR text: UWKD 200330Z 33005MPS CAVOK 19/16 Q1019 R29/CLRD70 TEMPO 2000 BR RMK QFE753/1004
Conditions at: UWKD (KAZAN , RU) observed 0330 UTC 20 August 2019
Temperature: 19.0°C (66°F)
Dewpoint: 16.0°C (61°F) [RH = 83%]
Pressure (altimeter): 30.09 inches Hg (1019.0 mb)
Winds: from the NNW (330 degrees) at 12 MPH (10 knots; 5.1 m/s)
Visibility: 6 or more miles (10+ km)
Ceiling: ceiling and visibility are OK
Clouds: unknown
Weather: no significant weather observed at this time

METAR text: UWKD 200300Z 32004MPS CAVOK 18/17 Q1019 R29/70D TEMPO 2000 BR RMK QFE753/1004
Conditions at: UWKD (KAZAN , RU) observed 0300 UTC 20 August 2019
Temperature: 18.0°C (64°F)
Dewpoint: 17.0°C (63°F) [RH = 94%]
Pressure (altimeter): 30.09 inches Hg (1019.0 mb)
Winds: from the NW (320 degrees) at 9 MPH (8 knots; 4.1 m/s)
Visibility: 6 or more miles (10+ km)
Ceiling: ceiling and visibility are OK
Clouds: unknown
Weather: no significant weather observed at this time

METAR text: UWKD 200230Z 32003MPS CAVOK 18/16 Q1019 R29/70D TEMPO 2000 BR RMK QFE753/1004
Conditions at: UWKD (KAZAN , RU) observed 0230 UTC 20 August 2019
Temperature: 18.0°C (64°F)
Dewpoint: 16.0°C (61°F) [RH = 88%]
Pressure (altimeter): 30.09 inches Hg (1019.0 mb)
Winds: from the NW (320 degrees) at 7 MPH (6 knots; 3.1 m/s)
Visibility: 6 or more miles (10+ km)
Ceiling: ceiling and visibility are OK
Clouds: unknown
Weather: no significant weather observed at this time

METAR text: UWKD 200200Z 32005MPS CAVOK 17/16 Q1018 R29/CLRD70 TEMPO 2000 BR RMK QFE753/1004
Conditions at: UWKD (KAZAN , RU) observed 0200 UTC 20 August 2019
Temperature: 17.0°C (63°F)
Dewpoint: 16.0°C (61°F) [RH = 94%]
Pressure (altimeter): 30.06 inches Hg (1018.0 mb)
Winds: from the NW (320 degrees) at 12 MPH (10 knots; 5.1 m/s)
Visibility: 6 or more miles (10+ km)
Ceiling: ceiling and visibility are OK
Clouds: unknown
Weather: no significant weather observed at this time

METAR text: UWKD 200130Z 32004MPS 8000 NSC 17/16 Q1018 R29/CLRD70 TEMPO 2000 BR RMK QFE752/1003
Conditions at: UWKD (KAZAN , RU) observed 0130 UTC 20 August 2019
Temperature: 17.0°C (63°F)
Dewpoint: 16.0°C (61°F) [RH = 94%]
Pressure (altimeter): 30.06 inches Hg (1018.0 mb)
Winds: from the NW (320 degrees) at 9 MPH (8 knots; 4.1 m/s)
Visibility: 5 miles ( 8 km)
Ceiling: at least 12,000 feet AGL
Clouds: sky clear below 12,000 feet AGL
Weather: no significant weather observed at this time

Forecast for: UWKD (KAZAN , RU)
Text: TAF UWKD 211100Z 2112/2212 01003MPS 9999 SCT020 TX25/2112Z TN16/2202Z
Forecast period: 1200 to 1800 UTC 21 August 2019
Forecast type: FROM: standard forecast or significant change
Winds: from the N (10 degrees) at 7 MPH (6 knots; 3.1 m/s)
Visibility: 6 or more miles 10+ km)
Ceiling: at least 12,000 feet AGL
Clouds: scattered clouds at 2000 feet AGL
Weather: no significant weather forecast for this period
Text: FM211800 VRB01MPS 4000 BR SCT015
Forecast period: 1800 UTC 21 August 2019 to 0600 UTC 22 August 2019
Forecast type: FROM: standard forecast or significant change
Winds: variable direction winds at 2 MPH (2 knots; 1.0 m/s)
Visibility: 2.49 miles (4.01 km)
Ceiling: at least 12,000 feet AGL
Clouds: scattered clouds at 1500 feet AGL
Weather: BR  (mist)
Text: TEMPO 2121/2204 0600 FG VV003
Forecast period: 2100 UTC 21 August 2019 to 0400 UTC 22 August 2019
Forecast type: TEMPORARY: The following changes expected for less than half the time period
Visibility: 0.37 miles (0.60 km)
Ceiling: indefinite ceiling with vertical visibility of 300 feet AGL
Clouds: obscured sky
Weather: FG  (fog)
Text: BECMG 2206/2208 9999 NSW
Forecast period: 0600 to 1200 UTC 22 August 2019
Forecast type: BECOMING: Conditions expected to become as follows by 0800 UTC 22 August 2019
Winds: variable direction winds at 2 MPH (2 knots; 1.0 m/s)
Visibility: 6 or more miles 10+ km)
Ceiling: at least 12,000 feet AGL
Clouds: scattered clouds at 1500 feet AGL
Weather: NSW  (no significant weather)